createdAt,value
2022-08-19T00:00:46.129Z,22.96
2022-08-19T00:03:14.712Z,23.00
2022-08-19T00:05:43.911Z,23.00
2022-08-19T00:08:12.802Z,23.00
2022-08-19T00:10:41.488Z,23.00
2022-08-19T00:13:10.792Z,23.00
2022-08-19T00:15:39.374Z,23.06
2022-08-19T00:18:07.959Z,23.08
2022-08-19T00:20:36.543Z,23.10
2022-08-19T00:23:05.333Z,23.10
2022-08-19T00:25:34.939Z,23.10
2022-08-19T00:28:05.559Z,23.10
2022-08-19T00:30:34.259Z,23.10
2022-08-19T00:33:02.844Z,23.10
2022-08-19T00:35:31.431Z,23.10
2022-08-19T00:38:00.933Z,23.10
2022-08-19T00:40:29.623Z,23.10
2022-08-19T00:42:58.206Z,23.20
2022-08-19T00:45:31.806Z,23.14
2022-08-19T00:48:04.682Z,23.20
2022-08-19T00:50:34.956Z,23.20
2022-08-19T00:53:05.516Z,23.12
2022-08-19T00:55:35.054Z,23.20
2022-08-19T00:58:08.713Z,23.20
2022-08-19T01:00:38.860Z,23.20
2022-08-19T01:03:14.763Z,23.30
2022-08-19T01:05:46.012Z,23.30
2022-08-19T01:08:16.953Z,23.34
2022-08-19T01:10:51.296Z,23.40
2022-08-19T01:13:24.875Z,23.32
2022-08-19T01:16:07.612Z,23.40
2022-08-19T01:18:42.133Z,23.40
2022-08-19T01:21:43.808Z,23.40
2022-08-19T01:24:12.428Z,23.32
2022-08-19T01:26:44.982Z,23.32
2022-08-19T01:29:15.387Z,23.38
2022-08-19T01:31:44.122Z,23.40
2022-08-19T01:34:12.706Z,23.40
2022-08-19T01:36:46.977Z,23.40
2022-08-19T01:39:23.391Z,23.42
2022-08-19T01:41:55.545Z,23.44
2022-08-19T01:44:25.484Z,23.50
2022-08-19T01:46:54.366Z,23.40
2022-08-19T01:49:26.320Z,23.40
2022-08-19T01:51:55.539Z,23.26
2022-08-19T01:54:27.571Z,23.10
2022-08-19T01:57:08.776Z,23.00
2022-08-19T01:59:40.639Z,23.00
2022-08-19T02:02:10.039Z,22.90
2022-08-19T02:04:39.853Z,22.80
2022-08-19T02:07:09.494Z,22.80
2022-08-19T02:09:38.456Z,22.86
2022-08-19T02:12:10.084Z,22.90
2022-08-19T02:14:38.696Z,22.90
2022-08-19T02:17:07.894Z,22.90
2022-08-19T02:19:36.480Z,22.80
2022-08-19T02:22:08.954Z,22.80
2022-08-19T02:24:37.539Z,22.80
2022-08-19T02:27:07.123Z,22.80
2022-08-19T02:29:35.731Z,22.70
2022-08-19T02:32:05.707Z,22.62
2022-08-19T02:34:35.109Z,22.70
2022-08-19T02:37:04.029Z,22.70
2022-08-19T02:39:33.060Z,22.76
2022-08-19T02:42:03.466Z,22.70
2022-08-19T02:44:32.184Z,22.70
2022-08-19T02:47:00.840Z,22.72
2022-08-19T02:49:29.629Z,22.80
2022-08-19T02:52:04.873Z,22.80
2022-08-19T02:54:33.761Z,22.80
2022-08-19T02:57:02.346Z,22.80
2022-08-19T02:59:33.415Z,22.80
2022-08-19T03:02:01.971Z,22.78
2022-08-19T03:04:31.038Z,22.70
2022-08-19T03:07:02.681Z,22.60
2022-08-19T03:09:39.809Z,22.60
2022-08-19T03:12:08.613Z,22.60
2022-08-19T03:14:38.201Z,22.70
2022-08-19T03:17:09.242Z,22.74
2022-08-19T03:19:37.833Z,22.80
2022-08-19T03:22:06.724Z,22.80
2022-08-19T03:24:35.308Z,22.74
2022-08-19T03:27:06.247Z,22.70
2022-08-19T03:29:43.808Z,22.70
2022-08-19T03:32:24.449Z,22.60
2022-08-19T03:35:02.012Z,22.60
2022-08-19T03:37:30.589Z,22.68
2022-08-19T03:39:59.212Z,22.60
2022-08-19T03:42:38.621Z,22.60
2022-08-19T03:45:17.642Z,22.60
2022-08-19T03:47:46.738Z,22.70
2022-08-19T03:50:16.142Z,22.60
2022-08-19T03:52:49.889Z,22.60
2022-08-19T03:55:20.205Z,22.60
2022-08-19T03:57:49.679Z,22.50
2022-08-19T04:00:18.746Z,22.50
2022-08-19T04:02:58.247Z,22.50
2022-08-19T04:05:30.594Z,22.40
2022-08-19T04:08:00.515Z,22.40
2022-08-19T04:10:30.111Z,22.30
2022-08-19T04:12:58.798Z,22.20
2022-08-19T04:15:30.167Z,22.16
2022-08-19T04:17:59.039Z,22.10
2022-08-19T04:20:27.828Z,22.10
2022-08-19T04:22:58.389Z,22.12
2022-08-19T04:25:27.363Z,22.10
2022-08-19T04:27:55.941Z,22.16
2022-08-19T04:30:24.934Z,22.14
2022-08-19T04:32:54.126Z,22.20
2022-08-19T04:35:25.039Z,22.20
2022-08-19T04:37:53.859Z,22.30
2022-08-19T04:40:41.182Z,22.40
2022-08-19T04:43:09.870Z,22.44
2022-08-19T04:45:43.477Z,22.60
2022-08-19T04:48:26.267Z,22.70
2022-08-19T04:50:59.800Z,22.86
2022-08-19T04:53:37.632Z,23.00
2022-08-19T04:56:16.313Z,23.20
2022-08-19T04:58:46.151Z,23.50
2022-08-19T05:01:38.570Z,23.70
2022-08-19T05:04:08.997Z,23.94
2022-08-19T05:06:37.888Z,24.10
2022-08-19T05:09:07.191Z,24.30
2022-08-19T05:11:41.333Z,24.46
2022-08-19T05:14:14.145Z,24.50
2022-08-19T05:16:42.875Z,24.60
2022-08-19T05:19:30.198Z,24.70
2022-08-19T05:22:21.515Z,24.70
2022-08-19T05:25:11.201Z,24.60
2022-08-19T05:27:39.677Z,24.80
2022-08-19T05:30:10.241Z,24.86
2022-08-19T05:32:40.195Z,25.00
2022-08-19T05:35:10.706Z,24.90
2022-08-19T05:37:41.734Z,24.80
2022-08-19T05:40:11.667Z,24.80
2022-08-19T05:42:40.400Z,24.82
2022-08-19T05:45:10.098Z,24.90
2022-08-19T05:47:40.615Z,25.00
2022-08-19T05:50:11.887Z,25.00
2022-08-19T05:52:45.831Z,25.00
2022-08-19T05:55:22.149Z,24.90
2022-08-19T05:57:51.051Z,24.90
2022-08-19T06:00:24.466Z,25.00
2022-08-19T06:02:53.436Z,25.10
2022-08-19T06:05:22.191Z,25.10
2022-08-19T06:07:50.776Z,25.10
2022-08-19T06:10:19.405Z,25.34
2022-08-19T06:12:48.091Z,25.70
2022-08-19T06:15:17.193Z,26.12
2022-08-19T06:17:45.874Z,26.88
2022-08-19T06:20:16.598Z,27.12
2022-08-19T06:22:50.762Z,27.10
2022-08-19T06:25:19.922Z,26.80
2022-08-19T06:28:11.517Z,26.60
2022-08-19T06:30:38.390Z,26.48
2022-08-19T06:33:06.975Z,26.40
2022-08-19T06:35:41.723Z,26.20
2022-08-19T06:38:10.859Z,26.10
2022-08-19T06:40:39.890Z,26.10
2022-08-19T06:43:09.546Z,25.90
2022-08-19T06:45:39.905Z,25.90
2022-08-19T06:48:08.723Z,25.80
2022-08-19T06:50:39.473Z,25.80
2022-08-19T06:53:09.476Z,25.80
2022-08-19T06:55:38.877Z,25.90
2022-08-19T06:58:07.566Z,25.90
2022-08-19T07:00:36.150Z,26.12
2022-08-19T07:03:08.818Z,26.76
2022-08-19T07:05:45.698Z,27.50
2022-08-19T07:08:15.726Z,28.36
2022-08-19T07:10:46.320Z,29.22
2022-08-19T07:13:15.365Z,29.84
2022-08-19T07:15:44.142Z,30.34
2022-08-19T07:18:12.726Z,30.98
2022-08-19T07:20:42.934Z,31.40
2022-08-19T07:23:15.928Z,32.02
2022-08-19T07:25:46.039Z,32.58
2022-08-19T07:28:23.944Z,33.00
2022-08-19T07:30:54.185Z,32.86
2022-08-19T07:33:24.202Z,32.90
2022-08-19T07:35:56.677Z,32.36
2022-08-19T07:38:26.081Z,31.74
2022-08-19T07:40:55.894Z,31.70
2022-08-19T07:43:34.763Z,31.60
2022-08-19T07:46:04.404Z,31.40
2022-08-19T07:48:33.710Z,31.50
2022-08-19T07:51:12.145Z,31.66
2022-08-19T07:53:44.506Z,31.36
2022-08-19T07:56:16.892Z,31.80
2022-08-19T07:58:47.908Z,31.98
2022-08-19T08:01:22.081Z,31.70
2022-08-19T08:04:12.547Z,31.30
2022-08-19T08:06:59.973Z,31.30
2022-08-19T08:09:39.183Z,31.10
2022-08-19T08:12:33.603Z,30.90
2022-08-19T08:15:12.700Z,30.70
2022-08-19T08:17:49.109Z,30.50
2022-08-19T08:20:20.344Z,30.40
2022-08-19T08:23:08.179Z,30.30
2022-08-19T08:25:37.786Z,30.22
2022-08-19T08:28:06.584Z,30.18
2022-08-19T08:30:37.207Z,30.64
2022-08-19T08:33:06.176Z,31.14
2022-08-19T08:35:34.991Z,31.54
2022-08-19T08:38:06.119Z,31.90
2022-08-19T08:41:07.392Z,32.18
2022-08-19T08:43:45.801Z,32.02
2022-08-19T08:46:43.262Z,32.50
2022-08-19T08:49:21.779Z,32.96
2022-08-19T08:52:03.471Z,33.48
2022-08-19T08:54:49.074Z,34.00
2022-08-19T08:57:48.769Z,34.52
2022-08-19T09:00:46.844Z,35.00
2022-08-19T09:03:24.807Z,35.30
2022-08-19T09:06:05.827Z,35.40
2022-08-19T09:08:44.076Z,35.12
2022-08-19T09:11:42.684Z,34.92
2022-08-19T09:14:52.013Z,35.10
2022-08-19T09:17:32.071Z,34.82
2022-08-19T09:20:22.879Z,34.60
2022-08-19T09:22:51.899Z,34.50
2022-08-19T09:25:26.945Z,34.40
2022-08-19T09:28:02.666Z,34.40
2022-08-19T09:30:36.324Z,34.14
2022-08-19T09:33:05.924Z,33.70
2022-08-19T09:35:50.067Z,33.38
2022-08-19T09:38:23.261Z,32.98
2022-08-19T09:40:51.847Z,32.50
2022-08-19T09:43:33.230Z,32.12
2022-08-19T09:46:08.860Z,31.60
2022-08-19T09:48:39.171Z,31.10
2022-08-19T09:51:11.795Z,30.76
2022-08-19T09:53:41.394Z,30.38
2022-08-19T09:56:11.223Z,30.00
2022-08-19T09:58:41.239Z,29.70
2022-08-19T10:01:11.020Z,29.60
2022-08-19T10:03:39.621Z,29.50
2022-08-19T10:06:14.656Z,29.30
2022-08-19T10:08:50.239Z,29.20
2022-08-19T10:11:27.546Z,29.00
2022-08-19T10:14:08.984Z,28.90
2022-08-19T10:16:39.701Z,28.70
2022-08-19T10:19:10.447Z,28.50
2022-08-19T10:21:40.441Z,28.30
2022-08-19T10:24:09.465Z,28.20
2022-08-19T10:26:43.167Z,28.20
2022-08-19T10:29:12.965Z,28.20
2022-08-19T10:32:01.314Z,28.20
2022-08-19T10:34:32.197Z,28.30
2022-08-19T10:37:05.962Z,28.30
2022-08-19T10:39:43.356Z,28.20
2022-08-19T10:42:14.508Z,28.10
2022-08-19T10:44:43.764Z,28.00
2022-08-19T10:47:17.369Z,28.00
2022-08-19T10:50:15.243Z,28.10
2022-08-19T10:52:50.396Z,28.30
2022-08-19T10:55:43.888Z,28.50
2022-08-19T10:58:23.528Z,28.74
2022-08-19T11:00:59.797Z,28.90
2022-08-19T11:03:32.068Z,28.90
2022-08-19T11:06:07.697Z,28.90
2022-08-19T11:08:38.860Z,28.98
2022-08-19T11:11:09.489Z,28.94
2022-08-19T11:13:42.168Z,28.86
2022-08-19T11:16:16.284Z,28.78
2022-08-19T11:18:50.131Z,28.84
2022-08-19T11:21:27.235Z,29.00
2022-08-19T11:23:59.813Z,29.20
2022-08-19T11:26:31.292Z,29.30
2022-08-19T11:29:01.585Z,29.20
2022-08-19T11:31:36.669Z,29.10
2022-08-19T11:34:11.738Z,29.10
2022-08-19T11:36:43.975Z,29.10
2022-08-19T11:39:16.232Z,29.10
2022-08-19T11:41:45.344Z,29.00
2022-08-19T11:44:15.533Z,28.90
2022-08-19T11:46:47.608Z,28.80
2022-08-19T11:49:20.131Z,28.70
2022-08-19T11:51:51.356Z,28.60
2022-08-19T11:54:20.039Z,28.50
2022-08-19T11:56:50.365Z,28.34
2022-08-19T11:59:18.950Z,28.30
2022-08-19T12:01:47.746Z,28.20
2022-08-19T12:04:16.379Z,28.20
2022-08-19T12:06:47.365Z,28.10
2022-08-19T12:09:16.873Z,28.00
2022-08-19T12:11:45.876Z,28.00
2022-08-19T12:14:15.288Z,28.00
2022-08-19T12:16:50.374Z,28.00
2022-08-19T12:19:22.439Z,27.90
2022-08-19T12:21:54.216Z,27.90
2022-08-19T12:24:24.556Z,27.80
2022-08-19T12:26:55.073Z,27.70
2022-08-19T12:29:25.412Z,27.58
2022-08-19T12:31:54.002Z,27.40
2022-08-19T12:34:22.684Z,27.28
2022-08-19T12:36:51.271Z,27.10
2022-08-19T12:39:19.857Z,26.90
2022-08-19T12:41:54.501Z,26.62
2022-08-19T12:44:31.858Z,26.40
2022-08-19T12:47:04.107Z,26.20
2022-08-19T12:49:53.506Z,26.10
2022-08-19T12:52:28.342Z,26.00
2022-08-19T12:54:58.453Z,26.00
2022-08-19T12:57:32.792Z,25.90
2022-08-19T13:00:23.527Z,25.80
2022-08-19T13:02:53.962Z,25.70
2022-08-19T13:05:27.041Z,25.70
2022-08-19T13:07:58.677Z,25.60
2022-08-19T13:10:32.757Z,25.64
2022-08-19T13:13:02.888Z,25.70
2022-08-19T13:15:37.054Z,25.72
2022-08-19T13:18:05.711Z,25.80
2022-08-19T13:20:34.484Z,25.80
2022-08-19T13:23:05.936Z,25.90
2022-08-19T13:25:34.930Z,25.90
2022-08-19T13:28:05.447Z,25.90
2022-08-19T13:30:53.193Z,25.92
2022-08-19T13:33:22.087Z,26.00
2022-08-19T13:36:01.904Z,26.00
2022-08-19T13:38:31.747Z,26.10
2022-08-19T13:41:11.120Z,26.20
2022-08-19T13:43:41.005Z,26.30
2022-08-19T13:46:15.139Z,26.38
2022-08-19T13:48:44.007Z,26.50
2022-08-19T13:51:12.693Z,26.64
2022-08-19T13:53:47.754Z,26.80
2022-08-19T13:56:24.175Z,27.10
2022-08-19T13:58:55.137Z,27.30
2022-08-19T14:01:28.125Z,27.44
2022-08-19T14:03:56.708Z,27.60
2022-08-19T14:06:26.726Z,27.70
2022-08-19T14:08:55.416Z,27.80
2022-08-19T14:11:24.408Z,27.78
2022-08-19T14:13:53.197Z,27.80
2022-08-19T14:16:23.012Z,27.80
2022-08-19T14:18:52.823Z,27.80
2022-08-19T14:21:25.717Z,27.90
2022-08-19T14:23:54.865Z,28.00
2022-08-19T14:26:24.917Z,28.10
2022-08-19T14:28:54.336Z,28.20
2022-08-19T14:31:29.063Z,28.20
2022-08-19T14:33:59.694Z,28.20
2022-08-19T14:36:28.482Z,28.00
2022-08-19T14:38:58.913Z,27.98
2022-08-19T14:41:28.519Z,27.90
2022-08-19T14:43:58.393Z,27.80
2022-08-19T14:46:29.770Z,27.70
2022-08-19T14:48:59.858Z,27.70
2022-08-19T14:51:29.411Z,27.68
2022-08-19T14:53:58.739Z,27.60
2022-08-19T14:56:30.543Z,27.70
2022-08-19T14:59:02.329Z,27.70
2022-08-19T15:01:31.174Z,27.70
2022-08-19T15:03:59.980Z,27.70
2022-08-19T15:06:29.417Z,27.70
2022-08-19T15:09:02.061Z,27.70
2022-08-19T15:11:34.068Z,27.70
2022-08-19T15:14:03.064Z,27.70
2022-08-19T15:16:31.738Z,27.80
2022-08-19T15:19:01.447Z,27.72
2022-08-19T15:21:31.568Z,27.64
2022-08-19T15:24:02.321Z,27.60
2022-08-19T15:26:33.567Z,27.56
2022-08-19T15:29:04.224Z,27.50
2022-08-19T15:31:38.302Z,27.50
2022-08-19T15:34:08.730Z,27.40
2022-08-19T15:36:38.130Z,27.28
2022-08-19T15:39:07.736Z,27.20
2022-08-19T15:41:37.290Z,27.10
2022-08-19T15:44:13.503Z,27.10
2022-08-19T15:46:45.751Z,27.04
2022-08-19T15:49:18.530Z,26.90
2022-08-19T15:51:52.285Z,26.84
2022-08-19T15:54:22.441Z,26.80
2022-08-19T15:57:11.251Z,26.70
2022-08-19T16:00:02.448Z,26.70
2022-08-19T16:02:53.863Z,26.70
2022-08-19T16:05:45.817Z,26.60
2022-08-19T16:08:15.829Z,26.60
2022-08-19T16:10:44.518Z,26.64
2022-08-19T16:13:13.205Z,26.60
2022-08-19T16:15:43.426Z,26.50
2022-08-19T16:18:12.215Z,26.40
2022-08-19T16:20:41.312Z,26.40
2022-08-19T16:23:10.612Z,26.40
2022-08-19T16:25:39.710Z,26.42
2022-08-19T16:28:10.110Z,26.42
2022-08-19T16:30:41.173Z,26.40
2022-08-19T16:33:11.064Z,26.30
2022-08-19T16:35:39.885Z,26.22
2022-08-19T16:38:08.469Z,26.20
2022-08-19T16:40:37.257Z,26.20
2022-08-19T16:43:06.164Z,26.20
2022-08-19T16:45:34.842Z,26.20
2022-08-19T16:48:04.242Z,26.10
2022-08-19T16:50:48.758Z,26.10
2022-08-19T16:53:23.704Z,26.00
2022-08-19T16:56:00.102Z,26.00
2022-08-19T16:58:31.422Z,25.90
2022-08-19T17:01:04.250Z,25.90
2022-08-19T17:03:35.887Z,25.80
2022-08-19T17:06:17.852Z,25.80
2022-08-19T17:08:52.526Z,25.80
2022-08-19T17:11:24.886Z,25.80
2022-08-19T17:13:55.594Z,25.80
2022-08-19T17:16:28.016Z,25.80
2022-08-19T17:18:59.830Z,25.80
2022-08-19T17:21:32.774Z,25.80
2022-08-19T17:24:04.892Z,25.70
2022-08-19T17:26:33.698Z,25.70
2022-08-19T17:29:02.691Z,25.60
2022-08-19T17:31:32.915Z,25.60
2022-08-19T17:34:03.748Z,25.60
2022-08-19T17:36:34.368Z,25.60
2022-08-19T17:39:05.392Z,25.50
2022-08-19T17:41:34.917Z,25.50
2022-08-19T17:44:05.061Z,25.40
2022-08-19T17:46:34.355Z,25.40
2022-08-19T17:49:03.450Z,25.40
2022-08-19T17:51:36.033Z,25.30
2022-08-19T17:54:06.764Z,25.30
2022-08-19T17:56:35.450Z,25.20
2022-08-19T17:59:06.336Z,25.20
2022-08-19T18:01:53.916Z,25.10
2022-08-19T18:04:26.473Z,25.00
2022-08-19T18:06:55.919Z,24.90
2022-08-19T18:09:41.863Z,24.90
2022-08-19T18:12:16.620Z,24.88
2022-08-19T18:14:45.309Z,24.90
2022-08-19T18:17:19.327Z,24.88
2022-08-19T18:19:48.315Z,24.80
2022-08-19T18:22:25.403Z,24.70
2022-08-19T18:24:55.109Z,24.70
2022-08-19T18:27:27.246Z,24.64
2022-08-19T18:29:59.804Z,24.60
2022-08-19T18:32:35.205Z,24.50
2022-08-19T18:35:16.583Z,24.50
2022-08-19T18:37:46.648Z,24.50
2022-08-19T18:40:40.942Z,24.50
2022-08-19T18:43:13.639Z,24.50
2022-08-19T18:46:03.418Z,24.50
2022-08-19T18:48:57.332Z,24.46
2022-08-19T18:51:30.626Z,24.44
2022-08-19T18:54:01.553Z,24.40
2022-08-19T18:56:35.824Z,24.40
2022-08-19T18:59:04.672Z,24.30
2022-08-19T19:01:40.927Z,24.30
2022-08-19T19:04:13.638Z,24.30
2022-08-19T19:06:43.225Z,24.30
2022-08-19T19:09:18.988Z,24.30
2022-08-19T19:11:55.881Z,24.30
2022-08-19T19:14:50.572Z,24.30
2022-08-19T19:17:26.203Z,24.30
2022-08-19T19:19:54.974Z,24.30
2022-08-19T19:22:24.825Z,24.30
2022-08-19T19:24:57.191Z,24.20
2022-08-19T19:27:26.483Z,24.10
2022-08-19T19:29:56.376Z,24.10
2022-08-19T19:32:29.936Z,24.10
2022-08-19T19:34:59.918Z,24.10
2022-08-19T19:37:28.710Z,24.00
2022-08-19T19:39:57.559Z,24.10
2022-08-19T19:42:26.859Z,24.10
2022-08-19T19:44:56.878Z,24.00
2022-08-19T19:47:28.498Z,24.00
2022-08-19T19:50:15.306Z,24.02
2022-08-19T19:52:47.281Z,24.00
2022-08-19T19:55:21.082Z,24.00
2022-08-19T19:57:50.573Z,24.00
2022-08-19T20:00:21.997Z,24.00
2022-08-19T20:02:51.681Z,23.94
2022-08-19T20:05:21.920Z,23.90
2022-08-19T20:08:12.545Z,23.92
2022-08-19T20:10:43.688Z,23.90
2022-08-19T20:13:17.700Z,23.90
2022-08-19T20:15:46.967Z,23.90
2022-08-19T20:18:15.792Z,23.90
2022-08-19T20:20:46.832Z,23.90
2022-08-19T20:23:15.526Z,23.90
2022-08-19T20:25:44.615Z,23.90
2022-08-19T20:28:13.296Z,23.90
2022-08-19T20:30:46.298Z,23.90
2022-08-19T20:33:16.512Z,23.90
2022-08-19T20:35:46.535Z,23.90
2022-08-19T20:38:16.137Z,24.00
2022-08-19T20:40:44.926Z,24.00
2022-08-19T20:43:14.255Z,24.00
2022-08-19T20:45:42.922Z,24.00
2022-08-19T20:48:14.268Z,24.00
2022-08-19T20:50:43.053Z,24.08
2022-08-19T20:53:20.634Z,24.10
2022-08-19T20:55:50.462Z,24.00
2022-08-19T20:58:21.723Z,24.00
2022-08-19T21:00:54.534Z,23.90
2022-08-19T21:03:31.481Z,23.90
2022-08-19T21:06:00.070Z,23.96
2022-08-19T21:08:29.055Z,23.94
2022-08-19T21:10:59.127Z,23.96
2022-08-19T21:13:27.860Z,23.90
2022-08-19T21:15:56.755Z,23.90
2022-08-19T21:18:27.052Z,23.90
2022-08-19T21:20:56.583Z,23.90
2022-08-19T21:23:29.000Z,23.90
2022-08-19T21:26:00.606Z,23.80
2022-08-19T21:28:36.160Z,23.84
2022-08-19T21:31:10.564Z,23.90
2022-08-19T21:33:39.373Z,23.90
2022-08-19T21:36:08.887Z,23.90
2022-08-19T21:38:38.304Z,23.90
2022-08-19T21:41:07.887Z,23.90
2022-08-19T21:43:37.854Z,23.88
2022-08-19T21:46:07.515Z,23.80
2022-08-19T21:48:36.845Z,23.80
2022-08-19T21:51:05.605Z,23.88
2022-08-19T21:53:34.894Z,23.90
2022-08-19T21:56:06.667Z,23.80
2022-08-19T21:58:36.779Z,23.80
2022-08-19T22:01:08.283Z,23.80
2022-08-19T22:03:38.635Z,23.78
2022-08-19T22:06:07.658Z,23.70
2022-08-19T22:08:37.063Z,23.70
2022-08-19T22:11:05.761Z,23.70
2022-08-19T22:13:40.260Z,23.60
2022-08-19T22:16:10.416Z,23.60
2022-08-19T22:18:39.080Z,23.50
2022-08-19T22:21:11.579Z,23.46
2022-08-19T22:23:47.124Z,23.50
2022-08-19T22:26:18.084Z,23.50
2022-08-19T22:28:46.627Z,23.40
2022-08-19T22:31:16.549Z,23.40
2022-08-19T22:33:45.638Z,23.30
2022-08-19T22:36:14.738Z,23.30
2022-08-19T22:38:43.934Z,23.30
2022-08-19T22:41:12.520Z,23.30
2022-08-19T22:43:41.205Z,23.30
2022-08-19T22:46:16.901Z,23.30
2022-08-19T22:48:47.891Z,23.30
2022-08-19T22:51:43.413Z,23.30
2022-08-19T22:54:12.514Z,23.30
2022-08-19T22:56:41.198Z,23.30
2022-08-19T22:59:10.704Z,23.30
2022-08-19T23:01:42.155Z,23.30
2022-08-19T23:04:11.050Z,23.30
2022-08-19T23:06:42.177Z,23.30
2022-08-19T23:09:16.617Z,23.30
2022-08-19T23:11:47.238Z,23.30
2022-08-19T23:14:17.763Z,23.30
2022-08-19T23:16:50.999Z,23.30
2022-08-19T23:19:21.398Z,23.30
2022-08-19T23:21:50.383Z,23.30
2022-08-19T23:24:19.798Z,23.20
2022-08-19T23:27:07.423Z,23.20
2022-08-19T23:29:54.951Z,23.20
2022-08-19T23:32:25.793Z,23.20
2022-08-19T23:34:56.637Z,23.20
2022-08-19T23:37:25.722Z,23.26
2022-08-19T23:39:54.449Z,23.20
2022-08-19T23:42:23.916Z,23.10
2022-08-19T23:44:53.089Z,23.06
2022-08-19T23:47:22.211Z,23.08
2022-08-19T23:49:51.216Z,22.98
2022-08-19T23:52:20.304Z,23.00
2022-08-19T23:54:48.987Z,23.00
2022-08-19T23:57:17.778Z,23.00
2022-08-19T23:59:46.570Z,23.00
